createdAt,value
2022-08-17T00:00:06.860Z,36.30
2022-08-17T00:03:02.727Z,39.00
2022-08-17T00:05:38.630Z,40.40
2022-08-17T00:08:06.570Z,41.83
2022-08-17T00:10:34.366Z,43.00
2022-08-17T00:13:07.025Z,41.70
2022-08-17T00:15:34.707Z,42.40
2022-08-17T00:18:02.268Z,44.47
2022-08-17T00:20:34.849Z,38.43
2022-08-17T00:23:08.636Z,40.07
2022-08-17T00:25:36.530Z,42.87
2022-08-17T00:28:04.259Z,39.10
2022-08-17T00:30:50.784Z,41.30
2022-08-17T00:33:24.267Z,47.77
2022-08-17T00:35:53.726Z,49.50
2022-08-17T00:38:22.337Z,45.77
2022-08-17T00:40:59.149Z,50.33
2022-08-17T00:43:46.423Z,65.77
2022-08-17T00:46:24.616Z,54.30
2022-08-17T00:48:52.989Z,51.50
2022-08-17T00:51:52.208Z,83.50
2022-08-17T00:54:33.257Z,70.07
2022-08-17T00:57:22.924Z,70.43
2022-08-17T01:00:02.267Z,53.63
2022-08-17T01:02:42.388Z,53.00
2022-08-17T01:05:23.498Z,44.87
2022-08-17T01:07:53.749Z,53.07
2022-08-17T01:11:00.084Z,52.00
2022-08-17T01:13:15.403Z,37.47
2022-08-17T01:15:50.411Z,40.13
2022-08-17T01:18:17.997Z,42.63
2022-08-17T01:20:53.958Z,52.30
2022-08-17T01:23:25.571Z,74.67
2022-08-17T01:25:55.839Z,69.87
2022-08-17T01:28:33.532Z,53.90
2022-08-17T01:31:13.174Z,62.57
2022-08-17T01:33:41.599Z,74.60
2022-08-17T01:36:09.566Z,46.10
2022-08-17T01:38:38.400Z,40.40
2022-08-17T01:41:13.822Z,33.17
2022-08-17T01:43:50.779Z,33.80
2022-08-17T01:46:24.895Z,30.70
2022-08-17T01:48:53.038Z,33.77
2022-08-17T01:51:21.660Z,56.57
2022-08-17T01:53:55.353Z,50.73
2022-08-17T01:56:26.262Z,38.93
2022-08-17T01:58:54.309Z,34.70
2022-08-17T02:01:24.944Z,33.23
2022-08-17T02:04:01.215Z,44.77
2022-08-17T02:06:47.125Z,54.87
2022-08-17T02:09:25.677Z,50.87
2022-08-17T02:11:55.104Z,37.00
2022-08-17T02:14:25.021Z,35.70
2022-08-17T02:16:53.795Z,36.13
2022-08-17T02:19:21.908Z,48.70
2022-08-17T02:21:52.722Z,55.87
2022-08-17T02:25:00.689Z,78.23
2022-08-17T02:27:19.145Z,70.83
2022-08-17T02:29:46.639Z,53.67
2022-08-17T02:32:27.626Z,57.27
2022-08-17T02:35:00.137Z,53.23
2022-08-17T02:37:29.887Z,45.47
2022-08-17T02:39:58.700Z,49.60
2022-08-17T02:42:38.887Z,49.90
2022-08-17T02:45:11.074Z,54.07
2022-08-17T02:47:40.091Z,76.13
2022-08-17T02:50:09.982Z,101.30
2022-08-17T02:52:43.650Z,131.13
2022-08-17T02:55:18.731Z,133.40
2022-08-17T02:57:46.651Z,178.60
2022-08-17T03:00:22.372Z,230.67
2022-08-17T03:02:50.643Z,442.13
2022-08-17T03:05:21.334Z,440.17
2022-08-17T03:07:49.148Z,339.77
2022-08-17T03:10:17.248Z,197.33
2022-08-17T03:12:46.928Z,131.37
2022-08-17T03:15:18.240Z,707.93
2022-08-17T03:17:46.122Z,601.33
2022-08-17T03:20:14.348Z,440.47
2022-08-17T03:22:53.344Z,350.07
2022-08-17T03:25:27.333Z,245.13
2022-08-17T03:27:56.967Z,684.80
2022-08-17T03:30:26.599Z,327.60
2022-08-17T03:32:56.314Z,156.90
2022-08-17T03:35:27.226Z,823.43
2022-08-17T03:38:00.861Z,733.60
2022-08-17T03:40:55.008Z,432.80
2022-08-17T03:43:18.711Z,218.13
2022-08-17T03:46:04.926Z,264.13
2022-08-17T03:48:56.913Z,205.53
2022-08-17T03:51:44.024Z,249.17
2022-08-17T03:54:31.042Z,197.37
2022-08-17T03:57:06.495Z,472.63
2022-08-17T03:59:36.052Z,571.07
2022-08-17T04:02:18.171Z,775.50
2022-08-17T04:04:45.765Z,846.97
2022-08-17T04:07:13.774Z,732.30
2022-08-17T04:09:42.872Z,566.97
2022-08-17T04:12:10.515Z,234.80
2022-08-17T04:14:51.675Z,217.10
2022-08-17T04:17:29.696Z,170.93
2022-08-17T04:19:57.513Z,155.00
2022-08-17T04:22:30.531Z,141.23
2022-08-17T04:25:06.265Z,129.70
2022-08-17T04:27:34.610Z,104.07
2022-08-17T04:30:03.758Z,116.70
2022-08-17T04:33:00.470Z,141.23
2022-08-17T04:35:21.143Z,146.17
2022-08-17T04:37:48.641Z,140.27
2022-08-17T04:40:36.148Z,119.40
2022-08-17T04:43:15.840Z,86.37
2022-08-17T04:45:56.895Z,118.40
2022-08-17T04:48:35.516Z,77.13
2022-08-17T04:51:07.414Z,80.80
2022-08-17T04:53:35.192Z,87.43
2022-08-17T04:56:03.507Z,75.30
2022-08-17T04:58:30.892Z,67.17
2022-08-17T05:00:58.327Z,184.23
2022-08-17T05:03:25.847Z,72.90
2022-08-17T05:05:53.685Z,77.97
2022-08-17T05:08:24.906Z,65.00
2022-08-17T05:10:53.158Z,61.03
2022-08-17T05:13:26.629Z,77.10
2022-08-17T05:15:57.295Z,56.23
2022-08-17T05:18:25.492Z,61.90
2022-08-17T05:20:53.312Z,60.30
2022-08-17T05:23:23.684Z,86.33
2022-08-17T05:25:55.697Z,72.70
2022-08-17T05:28:27.580Z,75.83
2022-08-17T05:30:59.462Z,60.40
2022-08-17T05:33:31.905Z,68.70
2022-08-17T05:36:00.616Z,68.57
2022-08-17T05:38:29.832Z,53.17
2022-08-17T05:40:58.256Z,59.20
2022-08-17T05:43:32.729Z,55.30
2022-08-17T05:46:18.548Z,50.40
2022-08-17T05:49:08.084Z,50.57
2022-08-17T05:51:59.168Z,46.03
2022-08-17T05:54:49.037Z,48.73
2022-08-17T05:57:39.604Z,43.00
2022-08-17T06:00:20.600Z,44.87
2022-08-17T06:03:07.166Z,48.30
2022-08-17T06:05:49.339Z,50.83
2022-08-17T06:08:48.048Z,50.90
2022-08-17T06:11:32.449Z,50.30
2022-08-17T06:14:29.632Z,51.53
2022-08-17T06:17:10.196Z,46.77
2022-08-17T06:19:57.011Z,48.93
2022-08-17T06:22:29.519Z,54.20
2022-08-17T06:25:02.260Z,53.10
2022-08-17T06:27:41.347Z,49.67
2022-08-17T06:30:16.042Z,47.43
2022-08-17T06:32:52.045Z,46.43
2022-08-17T06:35:34.274Z,43.60
2022-08-17T06:38:38.458Z,45.70
2022-08-17T06:41:24.415Z,44.07
2022-08-17T06:44:50.063Z,41.87
2022-08-17T06:47:37.114Z,40.43
2022-08-17T06:50:17.126Z,38.17
2022-08-17T06:53:00.801Z,41.00
2022-08-17T06:56:03.221Z,38.60
2022-08-17T06:58:33.694Z,38.33
2022-08-17T07:01:14.803Z,36.77
2022-08-17T07:04:11.892Z,35.70
2022-08-17T07:06:47.897Z,33.23
2022-08-17T07:09:29.243Z,30.70
2022-08-17T07:12:02.529Z,29.27
2022-08-17T07:14:40.981Z,31.30
2022-08-17T07:17:17.249Z,29.60
2022-08-17T07:19:47.578Z,28.20
2022-08-17T07:22:30.422Z,27.10
2022-08-17T07:25:20.938Z,25.80
2022-08-17T07:27:55.783Z,25.97
2022-08-17T07:30:31.504Z,25.10
2022-08-17T07:33:20.136Z,23.10
2022-08-17T07:35:49.788Z,24.73
2022-08-17T07:38:25.068Z,21.13
2022-08-17T07:41:04.140Z,23.27
2022-08-17T07:43:39.744Z,21.80
2022-08-17T07:46:40.429Z,20.93
2022-08-17T07:49:11.131Z,20.90
2022-08-17T07:51:48.003Z,19.53
2022-08-17T07:54:42.263Z,21.07
2022-08-17T07:57:12.789Z,20.30
2022-08-17T07:59:43.441Z,20.57
2022-08-17T08:02:17.100Z,19.50
2022-08-17T08:05:00.102Z,20.97
2022-08-17T08:07:50.328Z,20.87
2022-08-17T08:10:29.868Z,19.53
2022-08-17T08:13:06.287Z,20.07
2022-08-17T08:15:53.605Z,18.20
2022-08-17T08:18:54.605Z,15.13
2022-08-17T08:21:36.788Z,17.40
2022-08-17T08:24:30.909Z,17.70
2022-08-17T08:27:17.454Z,15.93
2022-08-17T08:30:06.894Z,16.23
2022-08-17T08:32:57.534Z,16.50
2022-08-17T08:35:37.236Z,17.23
2022-08-17T08:38:23.671Z,16.23
2022-08-17T08:41:10.571Z,17.27
2022-08-17T08:44:22.062Z,14.10
2022-08-17T08:47:35.566Z,13.77
2022-08-17T08:50:37.506Z,13.30
2022-08-17T08:53:23.579Z,10.40
2022-08-17T08:55:53.999Z,11.50
2022-08-17T08:58:41.778Z,10.40
2022-08-17T09:01:23.799Z,11.00
2022-08-17T09:04:18.306Z,11.57
2022-08-17T09:06:56.456Z,7.90
2022-08-17T09:09:58.994Z,8.13
2022-08-17T09:12:41.611Z,8.23
2022-08-17T09:15:25.576Z,7.50
2022-08-17T09:19:02.699Z,7.43
2022-08-17T09:20:59.983Z,6.90
2022-08-17T09:23:42.362Z,6.67
2022-08-17T09:26:37.759Z,6.73
2022-08-17T09:29:09.976Z,6.67
2022-08-17T09:31:52.525Z,6.10
2022-08-17T09:34:33.242Z,6.67
2022-08-17T09:37:21.971Z,6.43
2022-08-17T09:40:13.733Z,6.97
2022-08-17T09:42:52.586Z,5.70
2022-08-17T09:45:49.409Z,5.37
2022-08-17T09:48:44.001Z,5.40
2022-08-17T09:51:26.903Z,5.40
2022-08-17T09:53:55.324Z,4.93
2022-08-17T09:56:29.447Z,5.17
2022-08-17T09:59:16.861Z,4.77
2022-08-17T10:01:51.073Z,4.50
2022-08-17T10:04:47.004Z,5.23
2022-08-17T10:07:31.363Z,5.10
2022-08-17T10:10:29.719Z,5.05
2022-08-17T10:13:15.302Z,4.67
2022-08-17T10:15:54.425Z,4.40
2022-08-17T10:18:43.609Z,4.82
2022-08-17T10:21:33.518Z,4.53
2022-08-17T10:25:21.247Z,6.30
2022-08-17T10:27:52.482Z,4.40
2022-08-17T10:30:25.021Z,8.13
2022-08-17T10:32:57.543Z,5.30
2022-08-17T10:35:57.194Z,4.30
2022-08-17T10:38:48.120Z,4.90
2022-08-17T10:41:24.403Z,4.60
2022-08-17T10:44:38.043Z,4.40
2022-08-17T10:47:09.723Z,4.40
2022-08-17T10:49:53.721Z,5.17
2022-08-17T10:52:26.206Z,4.67
2022-08-17T10:54:58.171Z,5.10
2022-08-17T10:57:27.296Z,4.90
2022-08-17T10:59:56.998Z,4.50
2022-08-17T11:02:50.012Z,4.57
2022-08-17T11:05:44.099Z,4.67
2022-08-17T11:08:28.991Z,5.10
2022-08-17T11:11:17.647Z,4.70
2022-08-17T11:14:08.611Z,5.23
2022-08-17T11:17:18.794Z,4.93
2022-08-17T11:20:18.758Z,4.23
2022-08-17T11:23:07.711Z,5.37
2022-08-17T11:25:52.036Z,8.30
2022-08-17T11:28:24.519Z,4.27
2022-08-17T11:30:56.221Z,5.10
2022-08-17T11:33:29.635Z,4.50
2022-08-17T11:36:06.494Z,5.03
2022-08-17T11:38:51.024Z,4.90
2022-08-17T11:41:46.095Z,4.93
2022-08-17T11:44:38.762Z,4.57
2022-08-17T11:47:36.824Z,4.43
2022-08-17T11:50:54.117Z,4.40
2022-08-17T11:54:08.643Z,5.80
2022-08-17T11:56:52.594Z,4.40
2022-08-17T11:59:45.271Z,5.20
2022-08-17T12:02:32.888Z,4.83
2022-08-17T12:05:25.300Z,4.10
2022-08-17T12:07:56.447Z,5.07
2022-08-17T12:10:31.765Z,4.40
2022-08-17T12:13:06.695Z,6.53
2022-08-17T12:15:40.728Z,5.17
2022-08-17T12:18:08.776Z,7.10
2022-08-17T12:20:40.828Z,5.93
2022-08-17T12:23:28.351Z,4.70
2022-08-17T12:26:17.197Z,4.93
2022-08-17T12:28:47.907Z,5.13
2022-08-17T12:31:37.102Z,5.03
2022-08-17T12:34:05.535Z,4.80
2022-08-17T12:36:33.619Z,5.00
2022-08-17T12:39:12.964Z,5.07
2022-08-17T12:41:46.970Z,5.13
2022-08-17T12:44:21.604Z,4.67
2022-08-17T12:47:04.527Z,4.77
2022-08-17T12:49:39.558Z,4.90
2022-08-17T12:52:32.722Z,5.80
2022-08-17T12:55:21.202Z,4.90
2022-08-17T12:57:54.103Z,4.83
2022-08-17T13:00:41.722Z,4.90
2022-08-17T13:03:19.191Z,5.20
2022-08-17T13:05:53.037Z,4.83
2022-08-17T13:08:35.993Z,5.07
2022-08-17T13:11:18.198Z,5.27
2022-08-17T13:13:51.651Z,5.50
2022-08-17T13:16:22.591Z,5.37
2022-08-17T13:18:53.425Z,5.77
2022-08-17T13:21:26.541Z,5.33
2022-08-17T13:24:05.884Z,5.87
2022-08-17T13:26:37.904Z,5.10
2022-08-17T13:29:28.753Z,5.70
2022-08-17T13:32:13.372Z,4.53
2022-08-17T13:35:13.052Z,4.83
2022-08-17T13:37:57.608Z,4.93
2022-08-17T13:40:32.166Z,5.23
2022-08-17T13:42:59.563Z,5.13
2022-08-17T13:45:34.952Z,4.60
2022-08-17T13:48:08.875Z,5.23
2022-08-17T13:50:56.924Z,5.33
2022-08-17T13:53:52.794Z,4.77
2022-08-17T13:56:37.468Z,5.17
2022-08-17T13:59:14.439Z,5.97
2022-08-17T14:01:53.911Z,4.90
2022-08-17T14:04:32.576Z,5.07
2022-08-17T14:07:22.630Z,7.00
2022-08-17T14:10:01.202Z,5.47
2022-08-17T14:12:32.230Z,4.87
2022-08-17T14:14:59.845Z,4.90
2022-08-17T14:17:36.352Z,5.27
2022-08-17T14:20:20.248Z,4.83
2022-08-17T14:22:53.844Z,5.33
2022-08-17T14:25:29.349Z,4.90
2022-08-17T14:27:57.875Z,4.83
2022-08-17T14:30:29.798Z,4.50
2022-08-17T14:32:59.173Z,4.83
2022-08-17T14:35:28.330Z,4.77
2022-08-17T14:38:02.085Z,4.93
2022-08-17T14:40:29.991Z,4.70
2022-08-17T14:42:59.554Z,5.20
2022-08-17T14:45:32.838Z,5.47
2022-08-17T14:48:07.684Z,7.60
2022-08-17T14:50:38.300Z,6.13
2022-08-17T14:53:08.253Z,7.20
2022-08-17T14:55:40.206Z,6.73
2022-08-17T14:58:08.997Z,5.20
2022-08-17T15:00:37.497Z,6.00
2022-08-17T15:03:05.351Z,5.47
2022-08-17T15:05:36.613Z,5.50
2022-08-17T15:08:05.459Z,5.70
2022-08-17T15:10:33.195Z,4.90
2022-08-17T15:13:00.744Z,5.80
2022-08-17T15:15:29.319Z,4.67
2022-08-17T15:17:59.609Z,5.40
2022-08-17T15:20:29.732Z,5.60
2022-08-17T15:22:58.915Z,4.73
2022-08-17T15:25:29.366Z,4.73
2022-08-17T15:27:56.983Z,4.67
2022-08-17T15:30:26.485Z,5.50
2022-08-17T15:32:56.543Z,4.70
2022-08-17T15:35:28.910Z,10.70
2022-08-17T15:38:04.702Z,5.40
2022-08-17T15:40:38.100Z,5.90
2022-08-17T15:43:11.547Z,5.23
2022-08-17T15:45:40.464Z,6.40
2022-08-17T15:48:09.189Z,5.90
2022-08-17T15:50:37.918Z,5.30
2022-08-17T15:53:05.361Z,5.10
2022-08-17T15:55:33.356Z,5.63
2022-08-17T15:58:01.755Z,6.47
2022-08-17T16:00:29.534Z,5.77
2022-08-17T16:03:46.298Z,5.10
2022-08-17T16:05:47.312Z,5.60
2022-08-17T16:08:20.860Z,5.40
2022-08-17T16:10:51.902Z,5.97
2022-08-17T16:13:19.604Z,5.87
2022-08-17T16:15:57.179Z,5.80
2022-08-17T16:18:31.779Z,5.87
2022-08-17T16:21:27.525Z,5.40
2022-08-17T16:23:59.496Z,5.47
2022-08-17T16:26:28.399Z,5.60
2022-08-17T16:28:59.970Z,5.83
2022-08-17T16:31:29.791Z,6.10
2022-08-17T16:34:16.400Z,6.20
2022-08-17T16:36:51.878Z,6.23
2022-08-17T16:39:26.866Z,6.00
2022-08-17T16:41:55.896Z,6.60
2022-08-17T16:44:23.810Z,6.47
2022-08-17T16:46:51.537Z,7.23
2022-08-17T16:49:35.841Z,7.10
2022-08-17T16:52:12.594Z,6.83
2022-08-17T16:54:43.606Z,6.90
2022-08-17T16:57:17.477Z,7.87
2022-08-17T16:59:50.186Z,8.23
2022-08-17T17:02:34.372Z,7.93
2022-08-17T17:05:39.442Z,7.63
2022-08-17T17:08:19.505Z,8.50
2022-08-17T17:10:50.990Z,7.50
2022-08-17T17:13:32.578Z,7.80
2022-08-17T17:16:03.479Z,7.87
2022-08-17T17:18:42.987Z,7.13
2022-08-17T17:21:14.073Z,7.87
2022-08-17T17:23:47.304Z,8.33
2022-08-17T17:26:43.767Z,7.73
2022-08-17T17:29:18.345Z,7.70
2022-08-17T17:32:03.060Z,7.23
2022-08-17T17:34:34.424Z,7.60
2022-08-17T17:37:15.815Z,7.20
2022-08-17T17:40:12.436Z,7.07
2022-08-17T17:42:41.868Z,7.23
2022-08-17T17:45:26.154Z,7.93
2022-08-17T17:47:53.735Z,6.30
2022-08-17T17:50:42.379Z,7.50
2022-08-17T17:53:34.876Z,7.20
2022-08-17T17:56:43.648Z,7.00
2022-08-17T17:59:32.672Z,7.67
2022-08-17T18:02:42.097Z,8.23
2022-08-17T18:05:34.954Z,7.10
2022-08-17T18:08:34.878Z,6.53
2022-08-17T18:11:24.698Z,6.27
2022-08-17T18:14:10.915Z,6.97
2022-08-17T18:16:42.670Z,5.50
2022-08-17T18:19:19.995Z,52.40
2022-08-17T18:21:52.646Z,144.97
2022-08-17T18:24:35.647Z,21.30
2022-08-17T18:27:31.052Z,72.90
2022-08-17T18:30:07.161Z,89.10
2022-08-17T18:32:43.444Z,65.17
2022-08-17T18:35:16.252Z,42.47
2022-08-17T18:37:48.209Z,30.13
2022-08-17T18:40:21.595Z,54.43
2022-08-17T18:43:02.779Z,10.60
2022-08-17T18:45:47.338Z,9.90
2022-08-17T18:48:28.154Z,10.93
2022-08-17T18:51:00.288Z,8.53
2022-08-17T18:53:34.551Z,10.70
2022-08-17T18:56:21.846Z,14.00
2022-08-17T18:58:59.474Z,8.73
2022-08-17T19:02:05.150Z,7.80
2022-08-17T19:04:41.616Z,7.30
2022-08-17T19:07:27.436Z,8.87
2022-08-17T19:09:54.746Z,13.30
2022-08-17T19:12:28.794Z,9.27
2022-08-17T19:14:59.288Z,12.10
2022-08-17T19:17:49.086Z,16.80
2022-08-17T19:20:19.632Z,13.97
2022-08-17T19:23:54.172Z,11.90
2022-08-17T19:26:53.690Z,13.30
2022-08-17T19:29:22.573Z,11.20
2022-08-17T19:31:50.186Z,14.80
2022-08-17T19:34:33.428Z,13.90
2022-08-17T19:37:30.107Z,21.57
2022-08-17T19:39:58.290Z,25.20
2022-08-17T19:42:52.505Z,23.60
2022-08-17T19:45:59.211Z,25.90
2022-08-17T19:48:39.899Z,30.53
2022-08-17T19:51:28.748Z,30.90
2022-08-17T19:54:18.232Z,35.30
2022-08-17T19:57:18.964Z,26.90
2022-08-17T20:00:03.865Z,40.37
2022-08-17T20:02:50.026Z,40.27
2022-08-17T20:05:44.226Z,44.90
2022-08-17T20:08:55.165Z,29.57
2022-08-17T20:11:42.056Z,38.73
2022-08-17T20:14:16.127Z,44.93
2022-08-17T20:16:44.406Z,40.97
2022-08-17T20:19:31.521Z,49.40
2022-08-17T20:22:03.287Z,71.83
2022-08-17T20:25:00.014Z,51.00
2022-08-17T20:27:33.102Z,59.63
2022-08-17T20:30:37.623Z,37.50
2022-08-17T20:33:09.043Z,47.10
2022-08-17T20:36:19.878Z,46.83
2022-08-17T20:38:57.601Z,74.67
2022-08-17T20:41:28.344Z,105.60
2022-08-17T20:43:59.102Z,81.00
2022-08-17T20:46:38.762Z,90.83
2022-08-17T20:49:47.175Z,101.63
2022-08-17T20:52:35.565Z,97.97
2022-08-17T20:55:04.374Z,86.37
2022-08-17T20:57:32.059Z,115.80
2022-08-17T21:00:17.218Z,98.67
2022-08-17T21:03:23.338Z,175.30
2022-08-17T21:06:16.790Z,160.67
2022-08-17T21:09:16.095Z,167.90
2022-08-17T21:12:03.909Z,164.57
2022-08-17T21:14:56.375Z,111.63
2022-08-17T21:17:42.203Z,130.83
2022-08-17T21:20:34.628Z,98.87
2022-08-17T21:23:36.004Z,91.23
2022-08-17T21:26:09.682Z,123.87
2022-08-17T21:29:30.349Z,104.07
2022-08-17T21:32:15.860Z,100.60
2022-08-17T21:35:08.246Z,101.23
2022-08-17T21:37:40.909Z,101.17
2022-08-17T21:40:11.254Z,106.90
2022-08-17T21:42:47.626Z,161.57
2022-08-17T21:45:25.974Z,79.20
2022-08-17T21:48:13.841Z,103.43
2022-08-17T21:50:44.508Z,133.00
2022-08-17T21:53:21.773Z,136.53
2022-08-17T21:55:50.294Z,143.97
2022-08-17T21:58:40.109Z,110.67
2022-08-17T22:01:21.673Z,144.27
2022-08-17T22:04:16.516Z,105.83
2022-08-17T22:06:56.789Z,104.37
2022-08-17T22:09:33.472Z,80.90
2022-08-17T22:12:05.783Z,91.57
2022-08-17T22:14:52.506Z,77.83
2022-08-17T22:17:26.366Z,124.53
2022-08-17T22:20:16.747Z,67.27
2022-08-17T22:23:08.540Z,84.80
2022-08-17T22:25:40.575Z,84.23
2022-08-17T22:28:11.650Z,59.37
2022-08-17T22:30:57.985Z,53.97
2022-08-17T22:33:31.236Z,52.20
2022-08-17T22:36:24.615Z,54.37
2022-08-17T22:38:58.293Z,63.03
2022-08-17T22:41:34.705Z,49.00
2022-08-17T22:44:17.235Z,64.90
2022-08-17T22:46:53.205Z,68.00
2022-08-17T22:49:38.449Z,69.37
2022-08-17T22:52:32.359Z,55.03
2022-08-17T22:55:33.057Z,61.70
2022-08-17T22:58:20.274Z,64.90
2022-08-17T23:00:49.537Z,53.97
2022-08-17T23:03:26.005Z,60.23
2022-08-17T23:06:08.753Z,79.33
2022-08-17T23:09:05.370Z,71.23
2022-08-17T23:11:50.031Z,48.70
2022-08-17T23:14:20.420Z,51.97
2022-08-17T23:16:50.286Z,68.33
2022-08-17T23:19:20.784Z,74.33
2022-08-17T23:21:52.557Z,72.47
2022-08-17T23:24:23.879Z,72.67
2022-08-17T23:26:51.515Z,79.77
2022-08-17T23:29:21.478Z,71.40
2022-08-17T23:31:51.010Z,43.80
2022-08-17T23:34:19.194Z,46.70
2022-08-17T23:36:52.376Z,48.37
2022-08-17T23:39:27.675Z,49.97
2022-08-17T23:42:00.266Z,67.63
2022-08-17T23:44:28.777Z,81.80
2022-08-17T23:46:56.779Z,81.17
2022-08-17T23:49:25.077Z,60.53
2022-08-17T23:51:54.633Z,45.90
2022-08-17T23:54:25.385Z,83.97
2022-08-17T23:56:52.849Z,76.90
2022-08-17T23:59:22.815Z,59.40
